sensor_id;sensor_type;location;lat;lon;timestamp;P1;durP1;ratioP1;P2;durP2;ratioP2
53939;SDS011;39850;43.324;21.916;2023-06-14T00:02:29;11.0;;;9.0;;
53939;SDS011;39850;43.324;21.916;2023-06-14T00:07:07;11.0;;;8.0;;
53939;SDS011;39850;43.324;21.916;2023-06-14T00:11:44;11.0;;;8.0;;
53939;SDS011;39850;43.324;21.916;2023-06-14T00:16:21;11.0;;;8.0;;
53939;SDS011;39850;43.324;21.916;2023-06-14T00:20:58;11.0;;;8.0;;
53939;SDS011;39850;43.324;21.916;2023-06-14T00:57:58;10.0;;;8.0;;
53939;SDS011;39850;43.324;21.916;2023-06-14T01:02:38;10.0;;;8.0;;
53939;SDS011;39850;43.324;21.916;2023-06-14T01:08:05;10.0;;;8.0;;
53939;SDS011;39850;43.324;21.916;2023-06-14T01:13:20;10.0;;;8.0;;
53939;SDS011;39850;43.324;21.916;2023-06-14T01:18:02;10.0;;;8.0;;
53939;SDS011;39850;43.324;21.916;2023-06-14T01:22:53;10.0;;;8.0;;
53939;SDS011;39850;43.324;21.916;2023-06-14T01:27:31;10.0;;;8.0;;
53939;SDS011;39850;43.324;21.916;2023-06-14T01:32:09;10.0;;;8.0;;
53939;SDS011;39850;43.324;21.916;2023-06-14T01:36:53;11.0;;;8.0;;
53939;SDS011;39850;43.324;21.916;2023-06-14T01:41:35;11.0;;;8.0;;
53939;SDS011;39850;43.324;21.916;2023-06-14T02:18:41;10.0;;;8.0;;
53939;SDS011;39850;43.324;21.916;2023-06-14T02:23:18;10.0;;;8.0;;
53939;SDS011;39850;43.324;21.916;2023-06-14T02:27:55;10.0;;;8.0;;
53939;SDS011;39850;43.324;21.916;2023-06-14T02:32:32;10.0;;;8.0;;
53939;SDS011;39850;43.324;21.916;2023-06-14T02:37:08;10.0;;;8.0;;
53939;SDS011;39850;43.324;21.916;2023-06-14T02:41:45;10.0;;;8.0;;
53939;SDS011;39850;43.324;21.916;2023-06-14T02:46:21;10.0;;;8.0;;
53939;SDS011;39850;43.324;21.916;2023-06-14T02:50:58;10.0;;;8.0;;
53939;SDS011;39850;43.324;21.916;2023-06-14T02:55:35;10.0;;;8.0;;
53939;SDS011;39850;43.324;21.916;2023-06-14T03:00:14;10.0;;;8.0;;
53939;SDS011;39850;43.324;21.916;2023-06-14T03:04:50;10.0;;;8.0;;
53939;SDS011;39850;43.324;21.916;2023-06-14T03:37:05;11.0;;;8.0;;
53939;SDS011;39850;43.324;21.916;2023-06-14T03:41:42;11.0;;;8.0;;
53939;SDS011;39850;43.324;21.916;2023-06-14T03:46:18;10.0;;;8.0;;
53939;SDS011;39850;43.324;21.916;2023-06-14T03:50:55;10.0;;;8.0;;
53939;SDS011;39850;43.324;21.916;2023-06-14T03:55:32;10.0;;;8.0;;
53939;SDS011;39850;43.324;21.916;2023-06-14T04:00:13;11.0;;;8.0;;
53939;SDS011;39850;43.324;21.916;2023-06-14T04:04:50;11.0;;;8.0;;
53939;SDS011;39850;43.324;21.916;2023-06-14T04:09:27;10.0;;;8.0;;
53939;SDS011;39850;43.324;21.916;2023-06-14T04:14:05;10.0;;;8.0;;
53939;SDS011;39850;43.324;21.916;2023-06-14T04:18:42;11.0;;;8.0;;
53939;SDS011;39850;43.324;21.916;2023-06-14T04:23:19;11.0;;;8.0;;
53939;SDS011;39850;43.324;21.916;2023-06-14T05:00:14;9.0;;;7.0;;
53939;SDS011;39850;43.324;21.916;2023-06-14T05:04:51;9.0;;;7.0;;
53939;SDS011;39850;43.324;21.916;2023-06-14T05:09:28;9.0;;;7.0;;
53939;SDS011;39850;43.324;21.916;2023-06-14T05:14:05;9.0;;;7.0;;
53939;SDS011;39850;43.324;21.916;2023-06-14T05:18:42;9.0;;;7.0;;
53939;SDS011;39850;43.324;21.916;2023-06-14T05:23:18;9.0;;;7.0;;
53939;SDS011;39850;43.324;21.916;2023-06-14T05:27:55;9.0;;;7.0;;
53939;SDS011;39850;43.324;21.916;2023-06-14T05:32:31;9.0;;;7.0;;
53939;SDS011;39850;43.324;21.916;2023-06-14T05:37:08;9.0;;;7.0;;
53939;SDS011;39850;43.324;21.916;2023-06-14T05:41:44;9.0;;;7.0;;
53939;SDS011;39850;43.324;21.916;2023-06-14T06:18:43;9.0;;;6.0;;
53939;SDS011;39850;43.324;21.916;2023-06-14T06:23:20;9.0;;;6.0;;
53939;SDS011;39850;43.324;21.916;2023-06-14T06:27:58;9.0;;;6.0;;
53939;SDS011;39850;43.324;21.916;2023-06-14T06:32:34;9.0;;;6.0;;
53939;SDS011;39850;43.324;21.916;2023-06-14T06:37:13;9.0;;;6.0;;
53939;SDS011;39850;43.324;21.916;2023-06-14T06:41:49;9.0;;;6.0;;
53939;SDS011;39850;43.324;21.916;2023-06-14T06:46:26;9.0;;;6.0;;
53939;SDS011;39850;43.324;21.916;2023-06-14T06:51:03;9.0;;;6.0;;
53939;SDS011;39850;43.324;21.916;2023-06-14T06:55:39;9.0;;;6.0;;
53939;SDS011;39850;43.324;21.916;2023-06-14T07:00:19;9.0;;;6.0;;
53939;SDS011;39850;43.324;21.916;2023-06-14T07:04:57;9.0;;;6.0;;
53939;SDS011;39850;43.324;21.916;2023-06-14T07:37:15;11.0;;;8.0;;
53939;SDS011;39850;43.324;21.916;2023-06-14T07:41:51;11.0;;;8.0;;
53939;SDS011;39850;43.324;21.916;2023-06-14T07:46:28;11.0;;;8.0;;
53939;SDS011;39850;43.324;21.916;2023-06-14T07:51:05;10.0;;;9.0;;
53939;SDS011;39850;43.324;21.916;2023-06-14T07:55:41;10.0;;;9.0;;
53939;SDS011;39850;43.324;21.916;2023-06-14T08:00:21;11.0;;;10.0;;
53939;SDS011;39850;43.324;21.916;2023-06-14T08:04:58;11.0;;;10.0;;
53939;SDS011;39850;43.324;21.916;2023-06-14T08:09:36;10.0;;;10.0;;
53939;SDS011;39850;43.324;21.916;2023-06-14T08:14:12;10.0;;;10.0;;
53939;SDS011;39850;43.324;21.916;2023-06-14T08:18:49;11.0;;;10.0;;
53939;SDS011;39850;43.324;21.916;2023-06-14T08:23:26;11.0;;;10.0;;
53939;SDS011;39850;43.324;21.916;2023-06-14T09:00:33;29.0;;;30.0;;
53939;SDS011;39850;43.324;21.916;2023-06-14T09:05:11;29.0;;;30.0;;
53939;SDS011;39850;43.324;21.916;2023-06-14T09:09:48;26.0;;;26.0;;
53939;SDS011;39850;43.324;21.916;2023-06-14T09:14:25;26.0;;;26.0;;
53939;SDS011;39850;43.324;21.916;2023-06-14T09:19:01;22.0;;;23.0;;
53939;SDS011;39850;43.324;21.916;2023-06-14T09:23:44;22.0;;;23.0;;
53939;SDS011;39850;43.324;21.916;2023-06-14T09:28:28;16.0;;;16.0;;
53939;SDS011;39850;43.324;21.916;2023-06-14T09:33:05;16.0;;;16.0;;
53939;SDS011;39850;43.324;21.916;2023-06-14T09:37:42;9.0;;;8.0;;
53939;SDS011;39850;43.324;21.916;2023-06-14T09:42:20;9.0;;;8.0;;
53939;SDS011;39850;43.324;21.916;2023-06-14T09:46:57;9.0;;;8.0;;
53939;SDS011;39850;43.324;21.916;2023-06-14T10:21:21;20.0;;;20.0;;
53939;SDS011;39850;43.324;21.916;2023-06-14T10:26:02;20.0;;;20.0;;
53939;SDS011;39850;43.324;21.916;2023-06-14T10:30:38;14.0;;;14.0;;
53939;SDS011;39850;43.324;21.916;2023-06-14T10:35:17;14.0;;;14.0;;
53939;SDS011;39850;43.324;21.916;2023-06-14T10:39:54;9.0;;;8.0;;
53939;SDS011;39850;43.324;21.916;2023-06-14T10:44:44;9.0;;;8.0;;
53939;SDS011;39850;43.324;21.916;2023-06-14T10:49:44;8.0;;;8.0;;
53939;SDS011;39850;43.324;21.916;2023-06-14T10:54:27;8.0;;;8.0;;
53939;SDS011;39850;43.324;21.916;2023-06-14T10:59:04;8.0;;;7.0;;
53939;SDS011;39850;43.324;21.916;2023-06-14T11:03:52;8.0;;;7.0;;
53939;SDS011;39850;43.324;21.916;2023-06-14T11:47:51;13.0;;;13.0;;
53939;SDS011;39850;43.324;21.916;2023-06-14T11:52:28;13.0;;;13.0;;
53939;SDS011;39850;43.324;21.916;2023-06-14T11:57:07;13.0;;;13.0;;
53939;SDS011;39850;43.324;21.916;2023-06-14T12:01:44;15.0;;;15.0;;
53939;SDS011;39850;43.324;21.916;2023-06-14T12:06:31;15.0;;;15.0;;
53939;SDS011;39850;43.324;21.916;2023-06-14T12:11:14;15.0;;;15.0;;
53939;SDS011;39850;43.324;21.916;2023-06-14T12:15:56;15.0;;;15.0;;
53939;SDS011;39850;43.324;21.916;2023-06-14T12:20:33;17.0;;;17.0;;
53939;SDS011;39850;43.324;21.916;2023-06-14T12:25:29;17.0;;;17.0;;
53939;SDS011;39850;43.324;21.916;2023-06-14T13:02:29;8.0;;;6.0;;
53939;SDS011;39850;43.324;21.916;2023-06-14T13:07:06;8.0;;;6.0;;
53939;SDS011;39850;43.324;21.916;2023-06-14T13:11:43;8.0;;;6.0;;
53939;SDS011;39850;43.324;21.916;2023-06-14T13:16:19;8.0;;;6.0;;
53939;SDS011;39850;43.324;21.916;2023-06-14T13:20:56;8.0;;;7.0;;
53939;SDS011;39850;43.324;21.916;2023-06-14T13:25:34;8.0;;;7.0;;
53939;SDS011;39850;43.324;21.916;2023-06-14T13:30:13;10.0;;;8.0;;
53939;SDS011;39850;43.324;21.916;2023-06-14T13:34:50;10.0;;;8.0;;
53939;SDS011;39850;43.324;21.916;2023-06-14T13:39:27;11.0;;;10.0;;
53939;SDS011;39850;43.324;21.916;2023-06-14T13:44:04;11.0;;;10.0;;
53939;SDS011;39850;43.324;21.916;2023-06-14T14:30:14;10.0;;;7.0;;
53939;SDS011;39850;43.324;21.916;2023-06-14T14:34:51;10.0;;;7.0;;
53939;SDS011;39850;43.324;21.916;2023-06-14T14:39:27;10.0;;;7.0;;
53939;SDS011;39850;43.324;21.916;2023-06-14T14:44:06;10.0;;;7.0;;
53939;SDS011;39850;43.324;21.916;2023-06-14T14:48:43;10.0;;;7.0;;
53939;SDS011;39850;43.324;21.916;2023-06-14T14:53:19;10.0;;;7.0;;
53939;SDS011;39850;43.324;21.916;2023-06-14T14:57:56;10.0;;;7.0;;
53939;SDS011;39850;43.324;21.916;2023-06-14T15:02:33;10.0;;;7.0;;
53939;SDS011;39850;43.324;21.916;2023-06-14T15:07:10;10.0;;;7.0;;
53939;SDS011;39850;43.324;21.916;2023-06-14T15:39:29;26.0;;;19.0;;
53939;SDS011;39850;43.324;21.916;2023-06-14T15:44:05;26.0;;;19.0;;
53939;SDS011;39850;43.324;21.916;2023-06-14T15:48:47;28.0;;;22.0;;
53939;SDS011;39850;43.324;21.916;2023-06-14T15:53:23;28.0;;;22.0;;
53939;SDS011;39850;43.324;21.916;2023-06-14T15:58:00;28.0;;;22.0;;
53939;SDS011;39850;43.324;21.916;2023-06-14T16:02:37;26.0;;;21.0;;
53939;SDS011;39850;43.324;21.916;2023-06-14T16:07:14;26.0;;;21.0;;
53939;SDS011;39850;43.324;21.916;2023-06-14T16:11:51;26.0;;;23.0;;
53939;SDS011;39850;43.324;21.916;2023-06-14T16:16:28;26.0;;;23.0;;
53939;SDS011;39850;43.324;21.916;2023-06-14T16:21:04;23.0;;;21.0;;
53939;SDS011;39850;43.324;21.916;2023-06-14T16:25:41;23.0;;;21.0;;
53939;SDS011;39850;43.324;21.916;2023-06-14T17:02:33;10.0;;;9.0;;
53939;SDS011;39850;43.324;21.916;2023-06-14T17:07:10;10.0;;;9.0;;
53939;SDS011;39850;43.324;21.916;2023-06-14T17:11:47;10.0;;;8.0;;
53939;SDS011;39850;43.324;21.916;2023-06-14T17:16:23;10.0;;;8.0;;
53939;SDS011;39850;43.324;21.916;2023-06-14T17:20:59;9.0;;;8.0;;
53939;SDS011;39850;43.324;21.916;2023-06-14T17:25:37;9.0;;;8.0;;
53939;SDS011;39850;43.324;21.916;2023-06-14T17:30:15;9.0;;;8.0;;
53939;SDS011;39850;43.324;21.916;2023-06-14T17:34:52;9.0;;;8.0;;
53939;SDS011;39850;43.324;21.916;2023-06-14T17:39:28;9.0;;;8.0;;
53939;SDS011;39850;43.324;21.916;2023-06-14T17:44:05;9.0;;;8.0;;
53939;SDS011;39850;43.324;21.916;2023-06-14T17:48:41;9.0;;;8.0;;
53939;SDS011;39850;43.324;21.916;2023-06-14T18:20:57;12.0;;;11.0;;
53939;SDS011;39850;43.324;21.916;2023-06-14T18:25:34;12.0;;;11.0;;
53939;SDS011;39850;43.324;21.916;2023-06-14T18:30:13;12.0;;;10.0;;
53939;SDS011;39850;43.324;21.916;2023-06-14T18:34:50;12.0;;;10.0;;
53939;SDS011;39850;43.324;21.916;2023-06-14T18:39:26;12.0;;;10.0;;
53939;SDS011;39850;43.324;21.916;2023-06-14T18:44:04;12.0;;;10.0;;
53939;SDS011;39850;43.324;21.916;2023-06-14T18:48:40;12.0;;;10.0;;
53939;SDS011;39850;43.324;21.916;2023-06-14T18:53:17;12.0;;;10.0;;
53939;SDS011;39850;43.324;21.916;2023-06-14T18:57:53;12.0;;;10.0;;
53939;SDS011;39850;43.324;21.916;2023-06-14T19:53:11;16.0;;;15.0;;
53939;SDS011;39850;43.324;21.916;2023-06-14T19:57:48;16.0;;;15.0;;
53939;SDS011;39850;43.324;21.916;2023-06-14T20:02:24;16.0;;;15.0;;
53939;SDS011;39850;43.324;21.916;2023-06-14T20:07:01;16.0;;;15.0;;
53939;SDS011;39850;43.324;21.916;2023-06-14T20:11:37;16.0;;;15.0;;
53939;SDS011;39850;43.324;21.916;2023-06-14T20:16:16;16.0;;;15.0;;
53939;SDS011;39850;43.324;21.916;2023-06-14T21:02:27;10.0;;;9.0;;
53939;SDS011;39850;43.324;21.916;2023-06-14T21:07:05;10.0;;;9.0;;
53939;SDS011;39850;43.324;21.916;2023-06-14T21:11:42;22.0;;;22.0;;
53939;SDS011;39850;43.324;21.916;2023-06-14T21:16:18;22.0;;;22.0;;
53939;SDS011;39850;43.324;21.916;2023-06-14T21:20:54;22.0;;;22.0;;
53939;SDS011;39850;43.324;21.916;2023-06-14T21:25:31;22.0;;;22.0;;
53939;SDS011;39850;43.324;21.916;2023-06-14T21:30:14;33.0;;;35.0;;
53939;SDS011;39850;43.324;21.916;2023-06-14T21:34:51;33.0;;;35.0;;
53939;SDS011;39850;43.324;21.916;2023-06-14T21:39:28;33.0;;;35.0;;
53939;SDS011;39850;43.324;21.916;2023-06-14T22:30:16;24.0;;;25.0;;
53939;SDS011;39850;43.324;21.916;2023-06-14T22:34:53;24.0;;;25.0;;
53939;SDS011;39850;43.324;21.916;2023-06-14T22:39:29;24.0;;;25.0;;
53939;SDS011;39850;43.324;21.916;2023-06-14T22:44:06;24.0;;;25.0;;
53939;SDS011;39850;43.324;21.916;2023-06-14T22:48:43;24.0;;;25.0;;
53939;SDS011;39850;43.324;21.916;2023-06-14T22:53:19;24.0;;;25.0;;
53939;SDS011;39850;43.324;21.916;2023-06-14T22:57:56;24.0;;;25.0;;
53939;SDS011;39850;43.324;21.916;2023-06-14T23:44:04;11.0;;;11.0;;
53939;SDS011;39850;43.324;21.916;2023-06-14T23:48:41;11.0;;;11.0;;
53939;SDS011;39850;43.324;21.916;2023-06-14T23:53:17;11.0;;;11.0;;
53939;SDS011;39850;43.324;21.916;2023-06-14T23:57:54;11.0;;;11.0;;
